Farmersville's Hourly Summary for Wednesday, March 15, 2017
Hour Temp
(f)
RH
(%)
Solar Rad.
(MJ/m2)
Rainfall
(in)
Wind
(mph)
3/15/2017 12:00 AM 49 52 0 0 1.01
3/15/2017 1:00 AM 46 55 0 0 1.73
3/15/2017 2:00 AM 44 57 0 0 1.55
3/15/2017 3:00 AM 44 60 0 0 1.77
3/15/2017 4:00 AM 44 60 0 0 2.44
3/15/2017 5:00 AM 44 64 0 0 3.54
3/15/2017 6:00 AM 43 64 0 0 4.27
3/15/2017 7:00 AM 43 68 0 0 5.49
3/15/2017 8:00 AM 42 67 0.01 0 5.72
3/15/2017 9:00 AM 41 69 0.17 0 6.68
3/15/2017 10:00 AM 42 69 0.57 0 6.32
3/15/2017 11:00 AM 43 66 1.2 0 6.34
3/15/2017 12:00 PM 46 62 1.78 0 6.46
3/15/2017 1:00 PM 51 55 2.67 0 5.83
3/15/2017 2:00 PM 54 50 2.85 0 5.93
3/15/2017 3:00 PM 57 47 2.45 0 5.82
3/15/2017 4:00 PM 58 47 2.35 0 6.45
3/15/2017 5:00 PM 59 45 1.81 0 5.41
3/15/2017 6:00 PM 60 43 1.23 0 3.84
3/15/2017 7:00 PM 58 47 0.53 0 4.19
3/15/2017 8:00 PM 56 51 0.05 0 3.74
3/15/2017 9:00 PM 53 56 0 0 4.35
3/15/2017 10:00 PM 52 58 0 0 5.45
3/15/2017 11:00 PM 50 61 0 0 5.94
Data Summary 49 57 17.67 0.00 4.59